Time;durP1;ratioP1;P1;durP2;ratioP2;P2;SDS_P1;SDS_P2;PMS_P1;PMS_P2;Temp;Humidity;BMP_temperature;BMP_pressure;BME280_temperature;BME280_humidity;BME280_pressure;Samples;Min_cycle;Max_cycle;Signal;HPM_P1;HPM_P2
2023/04/18 00:03:08;;;;;;;3.55;2.80;;;;;;;19.91;42.52;102536.03;20666294;28;20050;-69
2023/04/18 00:13:10;;;;;;;3.72;2.72;;;;;;;19.89;42.23;102540.63;20665737;28;20050;-69
2023/04/18 00:23:13;;;;;;;3.92;3.08;;;;;;;19.86;42.10;102542.56;20663997;28;20503;-69
2023/04/18 00:33:15;;;;;;;3.10;2.80;;;;;;;19.84;42.31;102538.25;20664545;28;20046;-69
2023/04/18 00:43:17;;;;;;;3.67;2.88;;;;;;;19.81;42.08;102531.22;20662371;28;20046;-69
2023/04/18 00:53:20;;;;;;;3.65;3.00;;;;;;;19.79;41.85;102525.06;20662409;28;20050;-69
2023/04/18 01:03:24;;;;;;;3.25;2.85;;;;;;;19.78;41.91;102526.03;20662233;28;20644;-69
2023/04/18 01:13:26;;;;;;;3.53;3.05;;;;;;;19.77;41.78;102516.19;20660936;28;20068;-69
2023/04/18 01:23:29;;;;;;;3.00;2.70;;;;;;;19.75;41.85;102518.16;20660595;28;20407;-69
2023/04/18 01:33:34;;;;;;;3.38;2.90;;;;;;;19.74;41.62;102521.81;20658544;28;20042;-69
2023/04/18 01:43:35;;;;;;;2.72;2.53;;;;;;;19.72;41.86;102526.47;20658447;28;20454;-69
2023/04/18 01:53:37;;;;;;;3.78;2.92;;;;;;;19.69;41.89;102513.19;20640408;28;20073;-69
2023/04/18 02:03:39;;;;;;;2.60;2.30;;;;;;;19.67;41.82;102510.59;20657974;28;20422;-68
2023/04/18 02:13:40;;;;;;;3.10;2.60;;;;;;;19.67;42.03;102516.00;20655259;28;20049;-68
2023/04/18 02:23:42;;;;;;;2.83;2.50;;;;;;;19.67;42.05;102510.59;20656405;28;20043;-68
2023/04/18 02:33:47;;;;;;;3.28;2.83;;;;;;;19.67;41.99;102512.44;20654803;28;20050;-68
2023/04/18 02:43:48;;;;;;;2.50;2.28;;;;;;;19.67;42.14;102520.53;20653289;28;20046;-69
2023/04/18 02:53:54;;;;;;;3.37;2.50;;;;;;;19.68;42.21;102523.13;20668543;28;20775;-68
2023/04/18 03:03:57;;;;;;;2.80;2.40;;;;;;;19.67;42.27;102526.81;20669400;28;20140;-68
2023/04/18 03:14:14;;;;;;;3.03;2.28;;;;;;;19.72;42.44;102526.47;20668639;28;20057;-68
2023/04/18 03:24:24;;;;;;;2.35;2.15;;;;;;;19.74;42.40;102527.22;20665125;28;20153;-69
2023/04/18 03:34:29;;;;;;;3.55;2.60;;;;;;;19.71;42.51;102517.50;20641052;28;20046;-69
2023/04/18 03:44:31;;;;;;;2.53;2.03;;;;;;;19.74;42.82;102521.81;20632734;28;20042;-68
2023/04/18 03:54:35;;;;;;;2.45;2.20;;;;;;;19.79;43.41;102541.25;20641415;28;20046;-68
2023/04/18 04:04:40;;;;;;;3.40;2.42;;;;;;;19.82;44.33;102545.59;20631313;28;20149;-69
2023/04/18 04:14:46;;;;;;;4.03;3.03;;;;;;;19.91;45.75;102546.84;20639205;28;20110;-71
2023/04/18 04:24:48;;;;;;;2.97;2.50;;;;;;;19.93;45.63;102539.47;20626263;28;20047;-71
2023/04/18 04:34:55;;;;;;;3.70;2.40;;;;;;;19.92;45.15;102548.56;20644989;28;20081;-71
2023/04/18 04:45:00;;;;;;;2.90;2.63;;;;;;;19.91;44.88;102554.94;20644735;28;20042;-71
2023/04/18 04:55:03;;;;;;;2.10;1.90;;;;;;;19.91;44.62;102571.16;20647217;28;20042;-71
2023/04/18 05:05:05;;;;;;;2.38;2.17;;;;;;;19.91;44.46;102588.22;20623504;28;20039;-71
2023/04/18 05:15:07;;;;;;;3.28;2.55;;;;;;;19.91;44.50;102576.56;20633544;28;20074;-71
2023/04/18 05:25:09;;;;;;;2.88;2.20;;;;;;;19.92;44.39;102579.13;20629976;28;20046;-71
2023/04/18 05:35:11;;;;;;;2.92;2.25;;;;;;;19.93;44.10;102586.28;20647613;28;20057;-71
2023/04/18 05:45:13;;;;;;;3.33;2.45;;;;;;;19.97;44.22;102600.44;20633909;28;20054;-71
2023/04/18 05:55:15;;;;;;;2.78;2.45;;;;;;;19.99;44.35;102612.00;20618112;28;20039;-71
2023/04/18 06:05:16;;;;;;;3.45;2.65;;;;;;;20.03;44.47;102613.53;20641150;28;20073;-71
2023/04/18 06:15:18;;;;;;;3.15;2.40;;;;;;;20.05;44.64;102608.00;20624487;28;20478;-71
2023/04/18 06:25:20;;;;;;;3.55;2.55;;;;;;;20.09;44.96;102618.50;20623946;28;20635;-71
2023/04/18 06:35:22;;;;;;;2.83;2.35;;;;;;;20.13;45.38;102614.59;20618992;28;20052;-71
2023/04/18 06:45:29;;;;;;;2.60;2.40;;;;;;;20.23;45.35;102611.22;20618939;28;20074;-71
2023/04/18 06:55:30;;;;;;;3.05;2.10;;;;;;;20.32;45.32;102610.56;20628025;28;20058;-75
2023/04/18 07:05:33;;;;;;;3.03;2.20;;;;;;;20.46;46.13;102622.25;20622878;28;20046;-70
2023/04/18 07:15:35;;;;;;;4.25;2.30;;;;;;;20.61;45.92;102618.41;20620703;28;20053;-70
2023/04/18 07:25:38;;;;;;;3.78;2.38;;;;;;;20.82;45.59;102615.13;20604474;28;20543;-71
2023/04/18 07:35:40;;;;;;;3.08;2.13;;;;;;;21.04;45.02;102613.50;20629696;28;20043;-70
2023/04/18 07:45:44;;;;;;;2.38;2.17;;;;;;;21.22;44.73;102633.81;20641075;28;20050;-70
2023/04/18 07:55:46;;;;;;;3.13;2.50;;;;;;;21.27;44.66;102634.31;20645132;28;20042;-67
2023/04/18 08:05:48;;;;;;;2.47;2.28;;;;;;;21.30;44.74;102634.06;20648810;28;20049;-68
2023/04/18 08:15:56;;;;;;;3.40;2.70;;;;;;;21.83;44.53;102637.31;20658388;28;20050;-68
2023/04/18 08:25:59;;;;;;;3.40;2.65;;;;;;;21.84;43.40;102642.66;20663420;28;20515;-68
2023/04/18 08:36:03;;;;;;;2.55;2.35;;;;;;;21.53;43.24;102653.13;20660965;28;20076;-68
2023/04/18 08:46:05;;;;;;;2.42;2.03;;;;;;;21.38;43.38;102667.84;20649783;28;20043;-68
2023/04/18 08:56:09;;;;;;;2.28;2.08;;;;;;;21.23;43.31;102668.03;20645769;28;20050;-68
2023/04/18 09:06:17;;;;;;;2.22;1.88;;;;;;;21.14;43.47;102657.88;20666895;28;20082;-67
2023/04/18 09:16:22;;;;;;;2.53;1.63;;;;;;;21.08;43.71;102661.03;20647958;28;20053;-67
2023/04/18 09:26:33;;;;;;;1.95;1.85;;;;;;;21.04;44.02;102654.13;20649888;28;20521;-67
2023/04/18 09:36:36;;;;;;;2.72;2.05;;;;;;;21.03;44.18;102661.41;20675655;28;20046;-67
2023/04/18 09:46:37;;;;;;;2.60;2.10;;;;;;;21.08;44.41;102642.09;20642816;28;20042;-67
2023/04/18 09:56:43;;;;;;;2.23;2.03;;;;;;;21.13;44.39;102637.19;20640762;28;20592;-67
2023/04/18 10:06:45;;;;;;;2.72;2.00;;;;;;;21.18;44.33;102629.56;20643654;28;20066;-67
2023/04/18 10:16:49;;;;;;;1.90;1.70;;;;;;;21.24;44.23;102629.13;20613789;28;20569;-67
2023/04/18 10:26:51;;;;;;;2.42;2.22;;;;;;;21.28;44.02;102618.91;20635254;28;20511;-67
2023/04/18 10:37:02;;;;;;;1.80;1.65;;;;;;;21.32;44.00;102614.97;20644032;28;20092;-67
2023/04/18 10:47:07;;;;;;;1.80;1.70;;;;;;;21.33;43.96;102608.59;20643354;28;20415;-67
2023/04/18 10:57:10;;;;;;;2.55;1.95;;;;;;;21.36;43.89;102604.78;20645188;28;20082;-67
2023/04/18 11:07:13;;;;;;;2.10;1.90;;;;;;;21.35;43.63;102603.06;20648871;28;20129;-67
2023/04/18 11:17:24;;;;;;;3.00;2.08;;;;;;;21.36;43.67;102586.69;20659789;28;20723;-67
2023/04/18 11:27:28;;;;;;;2.05;1.92;;;;;;;21.37;43.48;102592.97;20643455;28;20125;-67
2023/04/18 11:37:31;;;;;;;2.83;1.80;;;;;;;21.33;43.54;102581.50;20645336;28;20068;-67
2023/04/18 11:47:33;;;;;;;2.13;1.92;;;;;;;21.29;43.84;102575.47;20648862;28;20046;-67
2023/04/18 11:57:35;;;;;;;2.03;1.83;;;;;;;21.22;43.54;102563.38;20646893;28;20652;-67
2023/04/18 12:07:41;;;;;;;2.28;2.08;;;;;;;21.28;43.31;102584.56;20647974;28;20518;-67
2023/04/18 12:17:44;;;;;;;2.50;2.30;;;;;;;21.26;43.12;102558.56;20658537;28;20046;-67
2023/04/18 12:27:50;;;;;;;2.88;2.58;;;;;;;21.27;43.11;102555.75;20654379;28;20454;-67
2023/04/18 12:37:58;;;;;;;2.97;2.67;;;;;;;21.25;43.16;102555.03;20648995;28;20142;-67
2023/04/18 12:48:01;;;;;;;3.80;2.92;;;;;;;21.21;43.08;102547.25;20653837;28;20046;-67
2023/04/18 12:58:05;;;;;;;3.38;2.45;;;;;;;21.19;43.12;102557.31;20656746;28;20066;-67
2023/04/18 13:08:07;;;;;;;3.57;2.43;;;;;;;21.07;43.10;102527.50;20650654;28;20043;-67
2023/04/18 13:18:18;;;;;;;2.70;2.50;;;;;;;21.15;42.99;102530.47;20648546;28;20294;-67
2023/04/18 13:28:20;;;;;;;2.20;1.92;;;;;;;21.14;43.11;102536.00;20652834;28;20059;-67
2023/04/18 13:38:26;;;;;;;2.38;2.10;;;;;;;21.10;43.01;102527.28;20623167;28;20046;-67
2023/04/18 13:48:28;;;;;;;2.60;2.00;;;;;;;21.06;42.98;102519.50;20641210;28;20510;-67
2023/04/18 13:58:29;;;;;;;2.30;2.10;;;;;;;21.01;43.06;102511.75;20636066;28;20042;-67
2023/04/18 14:08:33;;;;;;;1.93;1.50;;;;;;;21.00;43.26;102499.19;20633905;28;20093;-67
2023/04/18 14:18:35;;;;;;;2.85;1.60;;;;;;;21.00;43.75;102504.59;20654860;28;20050;-67
2023/04/18 14:28:36;;;;;;;1.85;1.65;;;;;;;20.97;43.73;102508.38;20656019;28;20050;-67
2023/04/18 14:38:38;;;;;;;1.60;1.48;;;;;;;20.93;44.01;102504.19;20654416;28;20410;-68
2023/04/18 14:48:39;;;;;;;1.65;1.40;;;;;;;20.91;44.23;102507.97;20652095;28;20062;-67
2023/04/18 14:58:41;;;;;;;1.60;1.50;;;;;;;20.92;44.55;102502.47;20641231;28;20411;-66
2023/04/18 15:08:46;;;;;;;3.00;1.80;;;;;;;20.91;44.61;102500.75;20623876;28;20407;-69
2023/04/18 15:18:47;;;;;;;4.88;2.55;;;;;;;20.98;46.13;102507.41;20644202;28;20054;-66
2023/04/18 15:28:49;;;;;;;4.05;2.42;;;;;;;21.07;47.64;102502.25;20635612;28;20120;-66
2023/04/18 15:38:51;;;;;;;5.40;2.50;;;;;;;21.12;48.17;102508.19;20630126;28;20129;-65
2023/04/18 15:48:57;;;;;;;6.32;2.50;;;;;;;21.10;47.93;102500.19;20619728;28;20046;-65
2023/04/18 15:58:59;;;;;;;3.53;2.10;;;;;;;21.13;47.89;102507.19;20604740;28;20042;-67
2023/04/18 16:09:00;;;;;;;5.28;2.40;;;;;;;20.82;47.43;102469.81;20620682;28;20050;-67
2023/04/18 16:19:03;;;;;;;3.42;2.45;;;;;;;21.06;47.01;102511.38;20662981;28;20049;-67
2023/04/18 16:29:09;;;;;;;4.57;2.58;;;;;;;21.11;46.83;102529.00;20650478;28;20056;-68
2023/04/18 16:39:11;;;;;;;4.47;2.90;;;;;;;21.10;46.40;102543.50;20654214;28;20085;-68
2023/04/18 16:49:12;;;;;;;4.80;2.72;;;;;;;21.10;46.70;102537.22;20661963;28;20046;-68
2023/04/18 16:59:18;;;;;;;4.55;2.97;;;;;;;21.07;46.00;102537.47;20660922;28;20050;-68
2023/04/18 17:09:20;;;;;;;6.37;3.30;;;;;;;21.01;46.32;102534.25;20660682;28;20134;-69
2023/04/18 17:19:21;;;;;;;5.35;3.28;;;;;;;21.02;47.59;102529.72;20660701;28;20479;-69
2023/04/18 17:29:23;;;;;;;6.35;3.47;;;;;;;21.01;47.17;102534.25;20660422;28;20458;-69
2023/04/18 17:39:27;;;;;;;4.73;2.87;;;;;;;21.01;47.21;102534.25;20659513;28;20456;-68
2023/04/18 17:49:33;;;;;;;4.32;2.60;;;;;;;20.98;46.97;102542.59;20658334;28;20569;-68
2023/04/18 17:59:37;;;;;;;4.82;2.47;;;;;;;20.94;47.00;102565.47;20658311;28;20475;-69
2023/04/18 18:09:40;;;;;;;3.50;2.45;;;;;;;20.89;46.98;102567.66;20656941;28;20042;-69
2023/04/18 18:19:43;;;;;;;3.20;2.35;;;;;;;20.82;47.19;102566.41;20655704;28;20120;-69
2023/04/18 18:29:46;;;;;;;2.70;2.00;;;;;;;20.77;46.92;102565.84;20654554;28;20109;-68
2023/04/18 18:39:48;;;;;;;2.28;1.70;;;;;;;20.72;46.78;102571.59;20646489;28;20502;-68
2023/04/18 18:49:50;;;;;;;1.80;1.70;;;;;;;20.66;46.74;102583.75;20654962;28;20310;-68
2023/04/18 18:59:51;;;;;;;2.92;1.95;;;;;;;20.50;46.39;102575.88;20654596;28;20054;-69
2023/04/18 19:09:58;;;;;;;2.20;1.98;;;;;;;20.58;46.27;102596.97;20654786;28;20054;-68
2023/04/18 19:20:02;;;;;;;2.40;1.80;;;;;;;20.56;46.39;102609.75;20654192;28;20135;-68
2023/04/18 19:30:04;;;;;;;2.10;1.70;;;;;;;20.51;46.13;102611.94;20657850;28;20047;-68
2023/04/18 19:40:09;;;;;;;1.65;1.40;;;;;;;20.50;46.07;102615.63;20667613;28;20121;-68
2023/04/18 19:50:11;;;;;;;1.95;1.65;;;;;;;20.46;46.08;102619.53;20668276;28;20100;-69
2023/04/18 20:00:13;;;;;;;1.40;1.30;;;;;;;20.45;45.96;102620.50;20666901;28;20133;-68
2023/04/18 20:10:20;;;;;;;1.88;1.60;;;;;;;20.35;45.93;102610.38;20666066;28;20049;-68
2023/04/18 20:20:23;;;;;;;1.90;1.70;;;;;;;20.40;45.53;102628.94;20665844;28;20097;-68
2023/04/18 20:30:24;;;;;;;1.40;1.30;;;;;;;20.39;45.68;102638.91;20664791;28;20043;-68
2023/04/18 20:40:29;;;;;;;1.73;1.55;;;;;;;20.36;45.42;102636.44;20662482;28;20054;-68
2023/04/18 20:50:32;;;;;;;1.93;1.73;;;;;;;20.34;45.62;102640.22;20663552;28;20046;-68
2023/04/18 21:00:35;;;;;;;1.90;1.70;;;;;;;20.33;45.48;102647.47;20662593;28;20492;-68
2023/04/18 21:10:41;;;;;;;2.10;1.88;;;;;;;20.34;45.46;102646.50;20660286;28;20050;-69
2023/04/18 21:20:43;;;;;;;2.47;1.85;;;;;;;20.36;45.37;102665.31;20660238;28;20049;-68
2023/04/18 21:30:46;;;;;;;2.67;2.20;;;;;;;20.37;45.56;102653.50;20659935;28;20082;-68
2023/04/18 21:40:49;;;;;;;2.03;1.80;;;;;;;20.36;45.29;102663.47;20659348;28;20145;-68
2023/04/18 21:50:54;;;;;;;2.28;2.08;;;;;;;20.36;45.36;102662.59;20658271;28;20042;-69
2023/04/18 22:00:57;;;;;;;2.20;1.92;;;;;;;20.27;45.27;102647.88;20659024;28;20060;-68
2023/04/18 22:10:59;;;;;;;2.15;1.95;;;;;;;20.33;45.39;102650.19;20656928;28;20093;-69
2023/04/18 22:21:02;;;;;;;2.20;2.00;;;;;;;20.33;45.18;102658.28;20656357;28;20061;-69
2023/04/18 22:31:07;;;;;;;1.73;1.63;;;;;;;20.30;45.36;102663.91;20654410;28;20129;-68
2023/04/18 22:41:11;;;;;;;2.95;1.92;;;;;;;20.24;45.28;102665.22;20653126;28;20515;-68
2023/04/18 22:51:13;;;;;;;2.35;1.70;;;;;;;20.21;45.35;102659.16;20655017;28;20101;-68
2023/04/18 23:01:15;;;;;;;2.85;2.50;;;;;;;20.14;45.18;102653.34;20655217;28;20051;-68
2023/04/18 23:11:18;;;;;;;2.65;2.20;;;;;;;20.16;45.28;102661.31;20669198;28;20074;-68
2023/04/18 23:21:19;;;;;;;2.03;1.80;;;;;;;20.14;45.26;102669.56;20669247;28;20403;-68
2023/04/18 23:31:21;;;;;;;2.95;2.00;;;;;;;20.12;45.42;102666.09;20668686;28;20140;-69
2023/04/18 23:41:25;;;;;;;2.00;1.80;;;;;;;20.10;45.26;102668.88;20668576;28;20381;-69
2023/04/18 23:51:28;;;;;;;1.95;1.77;;;;;;;20.08;45.32;102670.84;20668042;28;20418;-68
